sensor_id;sensor_type;location;lat;lon;timestamp;pressure;altitude;pressure_sealevel;temperature;humidity
39223;BME280;24936;46.328;11.026;2023-01-24T00:01:20;95186.53;;;-1.47;86.69
39223;BME280;24936;46.328;11.026;2023-01-24T00:03:46;95186.91;;;-1.60;86.66
39223;BME280;24936;46.328;11.026;2023-01-24T00:06:11;95175.91;;;-1.65;86.50
39223;BME280;24936;46.328;11.026;2023-01-24T00:08:37;95180.31;;;-1.68;86.53
39223;BME280;24936;46.328;11.026;2023-01-24T00:11:05;95182.59;;;-1.86;87.73
39223;BME280;24936;46.328;11.026;2023-01-24T00:13:32;95187.91;;;-1.64;87.55
39223;BME280;24936;46.328;11.026;2023-01-24T00:16:14;95191.31;;;-1.62;87.23
39223;BME280;24936;46.328;11.026;2023-01-24T00:18:41;95178.50;;;-1.65;87.18
39223;BME280;24936;46.328;11.026;2023-01-24T00:21:09;95174.34;;;-1.97;87.89
39223;BME280;24936;46.328;11.026;2023-01-24T00:23:38;95179.50;;;-1.97;87.87
39223;BME280;24936;46.328;11.026;2023-01-24T00:26:04;95182.31;;;-2.05;88.17
39223;BME280;24936;46.328;11.026;2023-01-24T00:28:30;95186.47;;;-2.01;88.39
39223;BME280;24936;46.328;11.026;2023-01-24T00:30:55;95191.59;;;-2.00;88.16
39223;BME280;24936;46.328;11.026;2023-01-24T00:33:21;95186.78;;;-1.83;88.26
39223;BME280;24936;46.328;11.026;2023-01-24T00:35:46;95195.91;;;-1.72;87.51
39223;BME280;24936;46.328;11.026;2023-01-24T00:38:11;95198.34;;;-1.95;87.29
39223;BME280;24936;46.328;11.026;2023-01-24T00:40:37;95193.16;;;-2.24;88.20
39223;BME280;24936;46.328;11.026;2023-01-24T00:43:02;95197.56;;;-2.27;88.43
39223;BME280;24936;46.328;11.026;2023-01-24T00:45:27;95193.78;;;-2.46;88.80
39223;BME280;24936;46.328;11.026;2023-01-24T00:47:53;95197.41;;;-2.53;88.65
39223;BME280;24936;46.328;11.026;2023-01-24T00:50:18;95197.50;;;-2.56;89.25
39223;BME280;24936;46.328;11.026;2023-01-24T00:52:44;95203.31;;;-2.49;89.81
39223;BME280;24936;46.328;11.026;2023-01-24T00:55:13;95210.22;;;-2.50;90.09
39223;BME280;24936;46.328;11.026;2023-01-24T00:57:39;95213.22;;;-2.65;90.04
39223;BME280;24936;46.328;11.026;2023-01-24T01:00:04;95209.09;;;-2.71;90.06
39223;BME280;24936;46.328;11.026;2023-01-24T01:02:30;95211.13;;;-2.51;90.45
39223;BME280;24936;46.328;11.026;2023-01-24T01:04:55;95219.59;;;-2.47;90.07
39223;BME280;24936;46.328;11.026;2023-01-24T01:07:20;95227.47;;;-2.85;90.01
39223;BME280;24936;46.328;11.026;2023-01-24T01:09:48;95225.34;;;-2.69;90.85
39223;BME280;24936;46.328;11.026;2023-01-24T01:12:13;95228.41;;;-2.54;90.47
39223;BME280;24936;46.328;11.026;2023-01-24T01:14:38;95228.88;;;-2.40;90.48
39223;BME280;24936;46.328;11.026;2023-01-24T01:17:04;95226.84;;;-2.60;90.61
39223;BME280;24936;46.328;11.026;2023-01-24T01:19:29;95227.25;;;-2.44;90.74
39223;BME280;24936;46.328;11.026;2023-01-24T01:21:54;95223.50;;;-2.32;90.06
39223;BME280;24936;46.328;11.026;2023-01-24T01:24:20;95220.66;;;-2.23;90.04
39223;BME280;24936;46.328;11.026;2023-01-24T01:26:45;95224.09;;;-2.24;90.04
39223;BME280;24936;46.328;11.026;2023-01-24T01:29:10;95218.38;;;-2.34;89.98
39223;BME280;24936;46.328;11.026;2023-01-24T01:31:36;95225.97;;;-2.29;90.07
39223;BME280;24936;46.328;11.026;2023-01-24T01:34:01;95222.41;;;-2.25;89.89
39223;BME280;24936;46.328;11.026;2023-01-24T01:36:26;95229.00;;;-2.44;89.97
39223;BME280;24936;46.328;11.026;2023-01-24T01:38:52;95236.38;;;-2.64;90.18
39223;BME280;24936;46.328;11.026;2023-01-24T01:41:18;95231.13;;;-2.61;90.32
39223;BME280;24936;46.328;11.026;2023-01-24T01:43:44;95235.00;;;-2.44;90.73
39223;BME280;24936;46.328;11.026;2023-01-24T01:46:30;95236.41;;;-2.32;90.52
39223;BME280;24936;46.328;11.026;2023-01-24T01:49:01;95242.97;;;-2.22;90.41
39223;BME280;24936;46.328;11.026;2023-01-24T01:51:33;95243.78;;;-2.20;90.42
39223;BME280;24936;46.328;11.026;2023-01-24T01:54:04;95250.78;;;-2.25;90.33
39223;BME280;24936;46.328;11.026;2023-01-24T01:56:50;95247.06;;;-2.15;90.69
39223;BME280;24936;46.328;11.026;2023-01-24T01:59:31;95247.94;;;-2.16;90.85
39223;BME280;24936;46.328;11.026;2023-01-24T02:01:59;95252.09;;;-2.10;90.75
39223;BME280;24936;46.328;11.026;2023-01-24T02:04:30;95250.22;;;-2.05;91.19
39223;BME280;24936;46.328;11.026;2023-01-24T02:07:04;95255.00;;;-1.91;90.84
39223;BME280;24936;46.328;11.026;2023-01-24T02:09:37;95259.13;;;-1.85;90.63
39223;BME280;24936;46.328;11.026;2023-01-24T02:12:10;95249.97;;;-1.67;90.62
39223;BME280;24936;46.328;11.026;2023-01-24T02:14:37;95256.28;;;-1.47;90.29
39223;BME280;24936;46.328;11.026;2023-01-24T02:17:22;95249.91;;;-1.37;89.54
39223;BME280;24936;46.328;11.026;2023-01-24T02:27:44;95262.53;;;-1.28;88.68
39223;BME280;24936;46.328;11.026;2023-01-24T02:30:10;95265.25;;;-1.32;88.86
39223;BME280;24936;46.328;11.026;2023-01-24T02:32:35;95270.44;;;-1.32;88.18
39223;BME280;24936;46.328;11.026;2023-01-24T02:35:03;95274.66;;;-1.30;88.13
39223;BME280;24936;46.328;11.026;2023-01-24T02:37:28;95271.88;;;-1.24;87.56
39223;BME280;24936;46.328;11.026;2023-01-24T02:40:07;95272.88;;;-1.28;87.23
39223;BME280;24936;46.328;11.026;2023-01-24T02:42:35;95283.25;;;-1.29;87.57
39223;BME280;24936;46.328;11.026;2023-01-24T02:45:09;95284.47;;;-1.41;87.93
39223;BME280;24936;46.328;11.026;2023-01-24T02:47:38;95291.75;;;-1.26;87.58
39223;BME280;24936;46.328;11.026;2023-01-24T02:50:05;95294.19;;;-1.21;87.71
39223;BME280;24936;46.328;11.026;2023-01-24T02:52:33;95289.22;;;-1.27;87.63
39223;BME280;24936;46.328;11.026;2023-01-24T02:55:17;95302.09;;;-1.26;87.67
39223;BME280;24936;46.328;11.026;2023-01-24T02:57:42;95291.31;;;-1.12;87.18
39223;BME280;24936;46.328;11.026;2023-01-24T03:00:26;95282.63;;;-1.09;86.96
39223;BME280;24936;46.328;11.026;2023-01-24T03:02:51;95275.59;;;-1.05;86.56
39223;BME280;24936;46.328;11.026;2023-01-24T03:05:17;95278.84;;;-0.99;86.44
39223;BME280;24936;46.328;11.026;2023-01-24T03:07:42;95286.59;;;-1.26;87.21
39223;BME280;24936;46.328;11.026;2023-01-24T03:10:14;95292.03;;;-1.35;88.19
39223;BME280;24936;46.328;11.026;2023-01-24T03:12:41;95293.19;;;-1.45;88.49
39223;BME280;24936;46.328;11.026;2023-01-24T03:15:25;95295.50;;;-1.64;88.90
39223;BME280;24936;46.328;11.026;2023-01-24T03:18:09;95301.34;;;-1.29;88.76
39223;BME280;24936;46.328;11.026;2023-01-24T03:20:53;95301.25;;;-1.55;89.17
39223;BME280;24936;46.328;11.026;2023-01-24T03:23:38;95300.78;;;-1.39;89.02
39223;BME280;24936;46.328;11.026;2023-01-24T03:26:22;95303.78;;;-1.25;88.84
39223;BME280;24936;46.328;11.026;2023-01-24T03:29:06;95299.16;;;-1.15;88.88
39223;BME280;24936;46.328;11.026;2023-01-24T03:31:50;95308.00;;;-1.22;89.24
39223;BME280;24936;46.328;11.026;2023-01-24T03:34:33;95305.03;;;-1.38;89.18
39223;BME280;24936;46.328;11.026;2023-01-24T03:37:11;95304.72;;;-1.56;89.80
39223;BME280;24936;46.328;11.026;2023-01-24T03:39:36;95313.91;;;-1.18;89.64
39223;BME280;24936;46.328;11.026;2023-01-24T03:42:25;95308.03;;;-1.52;89.92
39223;BME280;24936;46.328;11.026;2023-01-24T03:44:51;95310.50;;;-1.47;90.12
39223;BME280;24936;46.328;11.026;2023-01-24T03:47:16;95307.34;;;-1.29;89.77
39223;BME280;24936;46.328;11.026;2023-01-24T03:53:05;95308.06;;;-1.24;89.23
39223;BME280;24936;46.328;11.026;2023-01-24T03:55:31;95309.25;;;-1.34;89.43
39223;BME280;24936;46.328;11.026;2023-01-24T03:57:56;95304.44;;;-1.46;89.66
39223;BME280;24936;46.328;11.026;2023-01-24T04:00:22;95303.69;;;-1.50;90.10
39223;BME280;24936;46.328;11.026;2023-01-24T04:02:47;95302.03;;;-1.52;90.15
39223;BME280;24936;46.328;11.026;2023-01-24T04:05:13;95305.56;;;-1.55;90.46
39223;BME280;24936;46.328;11.026;2023-01-24T04:07:38;95308.53;;;-1.39;89.99
39223;BME280;24936;46.328;11.026;2023-01-24T04:10:04;95313.59;;;-1.36;89.78
39223;BME280;24936;46.328;11.026;2023-01-24T04:12:30;95312.97;;;-1.44;89.73
39223;BME280;24936;46.328;11.026;2023-01-24T04:14:55;95308.31;;;-1.61;90.11
39223;BME280;24936;46.328;11.026;2023-01-24T04:17:21;95313.69;;;-1.67;90.71
39223;BME280;24936;46.328;11.026;2023-01-24T04:19:46;95309.63;;;-1.76;90.31
39223;BME280;24936;46.328;11.026;2023-01-24T04:22:12;95315.94;;;-1.87;90.99
39223;BME280;24936;46.328;11.026;2023-01-24T04:24:40;95315.31;;;-1.95;91.44
39223;BME280;24936;46.328;11.026;2023-01-24T04:27:06;95308.75;;;-1.75;90.79
39223;BME280;24936;46.328;11.026;2023-01-24T04:29:31;95315.69;;;-1.77;91.03
39223;BME280;24936;46.328;11.026;2023-01-24T04:31:56;95310.69;;;-1.83;91.03
39223;BME280;24936;46.328;11.026;2023-01-24T04:34:22;95310.47;;;-1.76;91.45
39223;BME280;24936;46.328;11.026;2023-01-24T04:36:47;95317.28;;;-2.03;90.92
39223;BME280;24936;46.328;11.026;2023-01-24T04:39:13;95311.84;;;-1.94;91.29
39223;BME280;24936;46.328;11.026;2023-01-24T04:41:38;95313.34;;;-1.87;91.48
39223;BME280;24936;46.328;11.026;2023-01-24T04:44:03;95324.31;;;-1.78;91.18
39223;BME280;24936;46.328;11.026;2023-01-24T04:46:29;95324.75;;;-1.94;91.07
39223;BME280;24936;46.328;11.026;2023-01-24T04:48:54;95329.31;;;-2.04;91.39
39223;BME280;24936;46.328;11.026;2023-01-24T04:51:20;95335.81;;;-1.90;91.20
39223;BME280;24936;46.328;11.026;2023-01-24T04:53:45;95326.72;;;-2.02;91.53
39223;BME280;24936;46.328;11.026;2023-01-24T04:56:10;95323.47;;;-2.10;91.83
39223;BME280;24936;46.328;11.026;2023-01-24T04:58:36;95329.19;;;-1.99;91.78
39223;BME280;24936;46.328;11.026;2023-01-24T05:01:02;95331.69;;;-1.96;91.89
39223;BME280;24936;46.328;11.026;2023-01-24T05:03:27;95326.38;;;-1.90;91.94
39223;BME280;24936;46.328;11.026;2023-01-24T05:05:53;95335.22;;;-2.00;91.51
39223;BME280;24936;46.328;11.026;2023-01-24T05:08:20;95337.34;;;-2.15;91.61
39223;BME280;24936;46.328;11.026;2023-01-24T05:10:45;95331.50;;;-2.21;92.05
39223;BME280;24936;46.328;11.026;2023-01-24T05:13:11;95340.81;;;-2.16;91.92
39223;BME280;24936;46.328;11.026;2023-01-24T05:15:36;95331.63;;;-2.26;91.96
39223;BME280;24936;46.328;11.026;2023-01-24T05:18:02;95332.28;;;-2.18;91.96
39223;BME280;24936;46.328;11.026;2023-01-24T05:20:28;95334.66;;;-2.10;91.99
39223;BME280;24936;46.328;11.026;2023-01-24T05:22:57;95330.25;;;-2.06;91.88
39223;BME280;24936;46.328;11.026;2023-01-24T05:25:23;95325.09;;;-2.06;91.83
39223;BME280;24936;46.328;11.026;2023-01-24T05:27:48;95324.75;;;-1.94;91.85
39223;BME280;24936;46.328;11.026;2023-01-24T05:30:14;95330.69;;;-2.22;91.42
39223;BME280;24936;46.328;11.026;2023-01-24T05:32:39;95330.31;;;-2.41;91.99
39223;BME280;24936;46.328;11.026;2023-01-24T05:35:06;95330.09;;;-2.66;91.86
39223;BME280;24936;46.328;11.026;2023-01-24T05:37:31;95330.78;;;-2.59;92.95
39223;BME280;24936;46.328;11.026;2023-01-24T05:39:57;95332.38;;;-2.22;92.58
39223;BME280;24936;46.328;11.026;2023-01-24T05:42:22;95332.44;;;-2.57;92.13
39223;BME280;24936;46.328;11.026;2023-01-24T05:44:47;95342.53;;;-2.82;92.25
39223;BME280;24936;46.328;11.026;2023-01-24T05:47:13;95343.69;;;-2.94;92.60
39223;BME280;24936;46.328;11.026;2023-01-24T05:49:38;95338.06;;;-2.75;92.91
39223;BME280;24936;46.328;11.026;2023-01-24T05:52:04;95345.31;;;-2.92;93.05
39223;BME280;24936;46.328;11.026;2023-01-24T05:54:29;95342.50;;;-3.17;92.52
39223;BME280;24936;46.328;11.026;2023-01-24T05:56:54;95354.59;;;-3.20;93.14
39223;BME280;24936;46.328;11.026;2023-01-24T05:59:20;95370.31;;;-2.95;93.06
39223;BME280;24936;46.328;11.026;2023-01-24T06:01:45;95369.44;;;-2.94;93.14
39223;BME280;24936;46.328;11.026;2023-01-24T06:04:11;95375.41;;;-2.92;93.18
39223;BME280;24936;46.328;11.026;2023-01-24T06:06:36;95381.84;;;-3.12;93.13
39223;BME280;24936;46.328;11.026;2023-01-24T06:09:02;95382.53;;;-3.41;92.67
39223;BME280;24936;46.328;11.026;2023-01-24T06:11:27;95389.63;;;-3.53;93.19
39223;BME280;24936;46.328;11.026;2023-01-24T06:13:54;95394.78;;;-3.53;93.22
39223;BME280;24936;46.328;11.026;2023-01-24T06:16:21;95400.59;;;-3.43;93.92
39223;BME280;24936;46.328;11.026;2023-01-24T06:18:47;95394.84;;;-3.56;93.83
39223;BME280;24936;46.328;11.026;2023-01-24T06:23:41;95404.22;;;-3.53;94.16
39223;BME280;24936;46.328;11.026;2023-01-24T06:26:10;95406.78;;;-3.51;94.50
39223;BME280;24936;46.328;11.026;2023-01-24T06:28:37;95407.59;;;-3.51;94.53
39223;BME280;24936;46.328;11.026;2023-01-24T06:31:09;95415.53;;;-3.60;94.12
39223;BME280;24936;46.328;11.026;2023-01-24T06:34:03;95422.53;;;-3.67;94.30
39223;BME280;24936;46.328;11.026;2023-01-24T06:39:10;95428.34;;;-3.57;94.53
39223;BME280;24936;46.328;11.026;2023-01-24T06:41:37;95425.63;;;-3.49;94.65
39223;BME280;24936;46.328;11.026;2023-01-24T06:44:03;95431.28;;;-3.33;94.72
39223;BME280;24936;46.328;11.026;2023-01-24T06:46:28;95438.91;;;-3.29;94.73
39223;BME280;24936;46.328;11.026;2023-01-24T06:48:54;95443.22;;;-3.29;94.70
39223;BME280;24936;46.328;11.026;2023-01-24T06:51:19;95453.56;;;-3.32;94.85
39223;BME280;24936;46.328;11.026;2023-01-24T06:53:44;95441.75;;;-3.41;94.74
39223;BME280;24936;46.328;11.026;2023-01-24T06:56:10;95447.72;;;-3.39;94.50
39223;BME280;24936;46.328;11.026;2023-01-24T06:58:35;95449.72;;;-3.13;94.87
39223;BME280;24936;46.328;11.026;2023-01-24T07:01:01;95454.25;;;-3.24;94.90
39223;BME280;24936;46.328;11.026;2023-01-24T07:03:26;95457.13;;;-3.40;94.92
39223;BME280;24936;46.328;11.026;2023-01-24T07:05:52;95441.88;;;-3.49;94.71
39223;BME280;24936;46.328;11.026;2023-01-24T07:08:17;95457.19;;;-3.41;94.87
39223;BME280;24936;46.328;11.026;2023-01-24T07:10:45;95450.06;;;-3.28;94.63
39223;BME280;24936;46.328;11.026;2023-01-24T07:13:10;95452.66;;;-3.30;94.75
39223;BME280;24936;46.328;11.026;2023-01-24T07:15:38;95456.88;;;-3.26;94.66
39223;BME280;24936;46.328;11.026;2023-01-24T07:18:13;95459.69;;;-3.38;94.74
39223;BME280;24936;46.328;11.026;2023-01-24T07:20:38;95466.16;;;-3.18;94.75
39223;BME280;24936;46.328;11.026;2023-01-24T07:23:04;95465.81;;;-3.01;94.72
39223;BME280;24936;46.328;11.026;2023-01-24T07:25:30;95464.84;;;-2.97;94.37
39223;BME280;24936;46.328;11.026;2023-01-24T07:27:56;95461.19;;;-2.87;93.73
39223;BME280;24936;46.328;11.026;2023-01-24T07:30:21;95465.34;;;-2.81;93.43
39223;BME280;24936;46.328;11.026;2023-01-24T07:32:47;95464.38;;;-2.77;93.66
39223;BME280;24936;46.328;11.026;2023-01-24T07:35:12;95465.09;;;-2.70;93.53
39223;BME280;24936;46.328;11.026;2023-01-24T07:37:37;95464.16;;;-2.66;93.64
39223;BME280;24936;46.328;11.026;2023-01-24T07:40:05;95463.31;;;-2.67;93.77
39223;BME280;24936;46.328;11.026;2023-01-24T07:42:30;95468.19;;;-2.56;93.23
39223;BME280;24936;46.328;11.026;2023-01-24T07:44:56;95472.47;;;-2.55;93.33
39223;BME280;24936;46.328;11.026;2023-01-24T07:47:24;95477.34;;;-2.42;93.18
39223;BME280;24936;46.328;11.026;2023-01-24T07:49:51;95476.31;;;-2.35;93.09
39223;BME280;24936;46.328;11.026;2023-01-24T07:52:17;95484.00;;;-2.32;93.09
39223;BME280;24936;46.328;11.026;2023-01-24T07:54:42;95486.19;;;-2.17;92.83
39223;BME280;24936;46.328;11.026;2023-01-24T07:57:07;95492.13;;;-2.13;92.56
39223;BME280;24936;46.328;11.026;2023-01-24T07:59:33;95497.03;;;-2.04;92.30
39223;BME280;24936;46.328;11.026;2023-01-24T08:01:58;95497.72;;;-1.95;92.26
39223;BME280;24936;46.328;11.026;2023-01-24T08:04:23;95491.44;;;-1.87;91.67
39223;BME280;24936;46.328;11.026;2023-01-24T08:06:49;95501.38;;;-1.71;91.45
39223;BME280;24936;46.328;11.026;2023-01-24T08:09:33;95505.16;;;-1.51;91.00
39223;BME280;24936;46.328;11.026;2023-01-24T08:11:58;95517.66;;;-1.36;90.43
39223;BME280;24936;46.328;11.026;2023-01-24T08:14:23;95508.28;;;-1.40;90.30
39223;BME280;24936;46.328;11.026;2023-01-24T08:16:49;95509.09;;;-1.38;90.34
39223;BME280;24936;46.328;11.026;2023-01-24T08:19:14;95509.84;;;-1.33;90.31
39223;BME280;24936;46.328;11.026;2023-01-24T08:21:40;95507.66;;;-1.17;89.79
39223;BME280;24936;46.328;11.026;2023-01-24T08:24:06;95512.41;;;-1.03;89.03
39223;BME280;24936;46.328;11.026;2023-01-24T08:26:32;95509.22;;;-0.81;88.95
39223;BME280;24936;46.328;11.026;2023-01-24T08:28:57;95519.91;;;-0.64;88.86
39223;BME280;24936;46.328;11.026;2023-01-24T08:31:22;95514.84;;;-0.68;88.48
39223;BME280;24936;46.328;11.026;2023-01-24T08:33:48;95524.44;;;-0.72;89.08
39223;BME280;24936;46.328;11.026;2023-01-24T08:36:13;95524.69;;;-0.80;89.20
39223;BME280;24936;46.328;11.026;2023-01-24T08:38:38;95535.78;;;-0.76;89.09
39223;BME280;24936;46.328;11.026;2023-01-24T08:41:07;95533.09;;;-0.73;88.80
39223;BME280;24936;46.328;11.026;2023-01-24T08:43:32;95536.78;;;-0.52;87.93
39223;BME280;24936;46.328;11.026;2023-01-24T08:45:58;95535.56;;;-0.40;87.93
39223;BME280;24936;46.328;11.026;2023-01-24T08:48:23;95523.47;;;-0.39;87.50
39223;BME280;24936;46.328;11.026;2023-01-24T08:50:49;95535.59;;;-0.13;86.64
39223;BME280;24936;46.328;11.026;2023-01-24T08:53:14;95541.09;;;0.05;86.24
39223;BME280;24936;46.328;11.026;2023-01-24T08:55:40;95530.88;;;0.27;86.26
39223;BME280;24936;46.328;11.026;2023-01-24T08:58:05;95538.28;;;0.11;85.69
39223;BME280;24936;46.328;11.026;2023-01-24T09:00:31;95543.75;;;0.28;86.01
39223;BME280;24936;46.328;11.026;2023-01-24T09:03:00;95539.44;;;0.54;85.84
39223;BME280;24936;46.328;11.026;2023-01-24T09:05:27;95543.00;;;0.50;83.86
39223;BME280;24936;46.328;11.026;2023-01-24T09:07:52;95536.03;;;0.52;82.66
39223;BME280;24936;46.328;11.026;2023-01-24T09:10:18;95535.97;;;0.79;82.48
39223;BME280;24936;46.328;11.026;2023-01-24T09:12:43;95536.56;;;1.35;80.54
39223;BME280;24936;46.328;11.026;2023-01-24T09:15:09;95534.38;;;1.70;78.63
39223;BME280;24936;46.328;11.026;2023-01-24T09:17:34;95530.91;;;1.70;79.16
39223;BME280;24936;46.328;11.026;2023-01-24T09:20:00;95533.09;;;1.58;79.19
39223;BME280;24936;46.328;11.026;2023-01-24T09:22:26;95537.19;;;1.64;78.83
39223;BME280;24936;46.328;11.026;2023-01-24T09:24:52;95532.41;;;1.75;78.59
39223;BME280;24936;46.328;11.026;2023-01-24T09:27:17;95534.72;;;1.83;78.14
39223;BME280;24936;46.328;11.026;2023-01-24T09:29:43;95537.31;;;1.61;79.57
39223;BME280;24936;46.328;11.026;2023-01-24T09:32:08;95537.31;;;1.61;80.06
39223;BME280;24936;46.328;11.026;2023-01-24T09:34:36;95536.19;;;1.22;81.06
39223;BME280;24936;46.328;11.026;2023-01-24T09:37:01;95542.47;;;0.91;82.44
39223;BME280;24936;46.328;11.026;2023-01-24T09:39:26;95537.44;;;0.63;82.95
39223;BME280;24936;46.328;11.026;2023-01-24T09:42:03;95535.63;;;0.65;83.99
39223;BME280;24936;46.328;11.026;2023-01-24T09:44:44;95552.75;;;0.69;84.20
39223;BME280;24936;46.328;11.026;2023-01-24T09:47:26;95544.97;;;0.69;83.75
39223;BME280;24936;46.328;11.026;2023-01-24T09:50:01;95541.56;;;0.68;83.92
39223;BME280;24936;46.328;11.026;2023-01-24T09:55:19;95539.50;;;1.26;82.76
39223;BME280;24936;46.328;11.026;2023-01-24T09:57:50;95536.56;;;1.35;82.16
39223;BME280;24936;46.328;11.026;2023-01-24T10:00:22;95540.31;;;1.50;81.64
39223;BME280;24936;46.328;11.026;2023-01-24T10:02:49;95537.56;;;1.77;81.34
39223;BME280;24936;46.328;11.026;2023-01-24T10:05:16;95542.09;;;1.94;80.93
39223;BME280;24936;46.328;11.026;2023-01-24T10:10:45;95541.56;;;2.28;78.71
39223;BME280;24936;46.328;11.026;2023-01-24T10:23:42;95519.69;;;2.55;77.80
39223;BME280;24936;46.328;11.026;2023-01-24T10:26:18;95513.84;;;2.50;78.26
39223;BME280;24936;46.328;11.026;2023-01-24T10:28:55;95512.41;;;2.63;77.20
39223;BME280;24936;46.328;11.026;2023-01-24T10:31:40;95505.88;;;2.94;77.04
39223;BME280;24936;46.328;11.026;2023-01-24T10:34:27;95502.50;;;3.30;75.53
39223;BME280;24936;46.328;11.026;2023-01-24T10:39:27;95505.75;;;3.35;74.54
39223;BME280;24936;46.328;11.026;2023-01-24T10:41:54;95501.25;;;3.39;74.45
39223;BME280;24936;46.328;11.026;2023-01-24T10:49:41;95492.66;;;3.18;75.85
39223;BME280;24936;46.328;11.026;2023-01-24T10:52:21;95494.06;;;3.44;74.25
39223;BME280;24936;46.328;11.026;2023-01-24T10:54:58;95476.81;;;3.42;73.88
39223;BME280;24936;46.328;11.026;2023-01-24T10:57:35;95484.38;;;3.48;74.87
39223;BME280;24936;46.328;11.026;2023-01-24T11:00:35;95475.53;;;3.70;73.71
39223;BME280;24936;46.328;11.026;2023-01-24T11:03:27;95477.56;;;3.82;72.80
39223;BME280;24936;46.328;11.026;2023-01-24T11:05:56;95467.50;;;3.92;73.35
39223;BME280;24936;46.328;11.026;2023-01-24T11:08:31;95466.75;;;3.72;72.59
39223;BME280;24936;46.328;11.026;2023-01-24T11:10:58;95465.50;;;3.62;72.37
39223;BME280;24936;46.328;11.026;2023-01-24T11:13:36;95466.72;;;4.09;72.52
39223;BME280;24936;46.328;11.026;2023-01-24T11:16:25;95457.66;;;5.97;67.00
39223;BME280;24936;46.328;11.026;2023-01-24T11:18:56;95463.56;;;6.17;64.03
39223;BME280;24936;46.328;11.026;2023-01-24T11:21:22;95452.34;;;7.32;61.63
39223;BME280;24936;46.328;11.026;2023-01-24T11:26:37;95446.50;;;9.02;55.85
39223;BME280;24936;46.328;11.026;2023-01-24T11:29:15;95441.22;;;9.28;58.60
39223;BME280;24936;46.328;11.026;2023-01-24T11:31:53;95436.84;;;8.77;55.92
39223;BME280;24936;46.328;11.026;2023-01-24T11:40:36;95412.38;;;8.64;56.11
39223;BME280;24936;46.328;11.026;2023-01-24T11:43:34;95409.66;;;7.99;56.86
39223;BME280;24936;46.328;11.026;2023-01-24T11:49:15;95403.53;;;7.86;57.65
39223;BME280;24936;46.328;11.026;2023-01-24T11:51:52;95402.44;;;8.16;55.65
39223;BME280;24936;46.328;11.026;2023-01-24T12:02:32;95395.31;;;8.31;56.65
39223;BME280;24936;46.328;11.026;2023-01-24T12:11:06;95379.78;;;9.42;53.55
39223;BME280;24936;46.328;11.026;2023-01-24T12:13:46;95375.53;;;10.01;50.11
39223;BME280;24936;46.328;11.026;2023-01-24T12:21:59;95365.88;;;9.77;50.51
39223;BME280;24936;46.328;11.026;2023-01-24T12:24:34;95352.25;;;9.11;51.31
39223;BME280;24936;46.328;11.026;2023-01-24T12:27:04;95350.94;;;8.92;51.95
39223;BME280;24936;46.328;11.026;2023-01-24T12:30:05;95347.03;;;7.94;55.48
39223;BME280;24936;46.328;11.026;2023-01-24T12:32:46;95346.44;;;8.30;54.51
39223;BME280;24936;46.328;11.026;2023-01-24T12:35:22;95338.66;;;8.15;56.09
39223;BME280;24936;46.328;11.026;2023-01-24T12:38:04;95344.38;;;7.14;58.65
39223;BME280;24936;46.328;11.026;2023-01-24T12:40:50;95344.28;;;6.59;59.39
39223;BME280;24936;46.328;11.026;2023-01-24T12:46:26;95346.00;;;6.15;62.27
39223;BME280;24936;46.328;11.026;2023-01-24T12:50:18;95344.22;;;5.55;62.71
39223;BME280;24936;46.328;11.026;2023-01-24T12:52:33;95342.34;;;5.26;64.29
39223;BME280;24936;46.328;11.026;2023-01-24T12:55:02;95345.22;;;5.22;64.08
39223;BME280;24936;46.328;11.026;2023-01-24T12:57:40;95336.13;;;5.29;63.38
39223;BME280;24936;46.328;11.026;2023-01-24T13:10:52;95335.19;;;6.50;59.79
39223;BME280;24936;46.328;11.026;2023-01-24T13:13:27;95333.81;;;6.59;60.37
39223;BME280;24936;46.328;11.026;2023-01-24T13:21:36;95334.44;;;6.34;59.93
39223;BME280;24936;46.328;11.026;2023-01-24T13:24:15;95329.72;;;5.95;61.32
39223;BME280;24936;46.328;11.026;2023-01-24T13:27:01;95327.97;;;6.10;61.47
39223;BME280;24936;46.328;11.026;2023-01-24T13:30:03;95320.34;;;6.36;61.11
39223;BME280;24936;46.328;11.026;2023-01-24T13:32:32;95318.75;;;6.34;60.17
39223;BME280;24936;46.328;11.026;2023-01-24T13:35:14;95315.38;;;7.44;59.45
39223;BME280;24936;46.328;11.026;2023-01-24T13:37:40;95318.16;;;7.69;58.54
39223;BME280;24936;46.328;11.026;2023-01-24T13:40:27;95320.94;;;6.98;59.28
39223;BME280;24936;46.328;11.026;2023-01-24T13:42:56;95310.78;;;6.06;60.44
39223;BME280;24936;46.328;11.026;2023-01-24T13:47:48;95314.69;;;5.38;62.79
39223;BME280;24936;46.328;11.026;2023-01-24T13:50:21;95314.41;;;5.12;63.87
39223;BME280;24936;46.328;11.026;2023-01-24T13:52:48;95325.88;;;5.10;64.50
39223;BME280;24936;46.328;11.026;2023-01-24T13:57:48;95314.06;;;5.18;63.61
39223;BME280;24936;46.328;11.026;2023-01-24T14:00:17;95319.75;;;5.41;63.64
39223;BME280;24936;46.328;11.026;2023-01-24T14:07:54;95330.53;;;5.51;62.25
39223;BME280;24936;46.328;11.026;2023-01-24T14:10:34;95326.78;;;5.86;60.61
39223;BME280;24936;46.328;11.026;2023-01-24T14:13:02;95335.81;;;6.10;61.23
39223;BME280;24936;46.328;11.026;2023-01-24T14:19:55;95334.16;;;6.53;59.27
39223;BME280;24936;46.328;11.026;2023-01-24T14:26:04;95329.75;;;5.79;59.52
39223;BME280;24936;46.328;11.026;2023-01-24T14:28:36;95334.72;;;5.54;60.58
39223;BME280;24936;46.328;11.026;2023-01-24T14:31:15;95333.41;;;5.30;61.15
39223;BME280;24936;46.328;11.026;2023-01-24T14:33:52;95328.75;;;5.05;63.06
39223;BME280;24936;46.328;11.026;2023-01-24T14:36:30;95330.75;;;4.84;64.89
39223;BME280;24936;46.328;11.026;2023-01-24T14:39:25;95337.47;;;4.72;64.77
39223;BME280;24936;46.328;11.026;2023-01-24T14:44:22;95342.53;;;4.59;64.33
39223;BME280;24936;46.328;11.026;2023-01-24T14:51:57;95355.13;;;4.00;66.67
39223;BME280;24936;46.328;11.026;2023-01-24T14:54:24;95347.34;;;3.82;68.77
39223;BME280;24936;46.328;11.026;2023-01-24T14:56:49;95347.94;;;3.87;68.62
39223;BME280;24936;46.328;11.026;2023-01-24T14:59:19;95350.25;;;3.93;68.12
39223;BME280;24936;46.328;11.026;2023-01-24T15:01:48;95354.63;;;3.75;70.09
39223;BME280;24936;46.328;11.026;2023-01-24T15:04:29;95341.22;;;3.65;70.21